Sunday, October 21, 2018, 12:41 PM EDT
Back to Local

KSEG, Selinsgrove Penn Valley Airport

Location: Selinsgrove, PA, United States Lat: 40.817
Local Time: 12:41 PM EDT (16:41 GMT) Lon: -76.867
Time Zone: US/Eastern Elev: 449 ft

Show me the last for .
Show Decoded

2018-10-21 11:53 METAR KSEG 211553Z AUTO 34014G19KT 10SM BKN049 BKN055 07/M03 A3012 RMK AO2
                 SLP202 T00671028 =
2018-10-21 10:53 METAR KSEG 211453Z AUTO 31016G26KT 10SM BKN046 BKN055 06/M03 A3010 RMK AO2 PK
                 WND 32026/1449 SLP197 T00611028 51029 =
2018-10-21 09:53 METAR KSEG 211353Z AUTO 31017G25KT 10SM FEW045 06/M03 A3009 RMK AO2 PK WND
                 31027/1310 SLP191 T00611028 =
2018-10-21 08:53 METAR KSEG 211253Z AUTO 31009G18KT 10SM CLR 04/M02 A3006 RMK AO2 SLP183
                 T00441022 =
2018-10-21 07:53 METAR KSEG 211153Z AUTO 31007G15KT 10SM FEW035 SCT045 04/M01 A3002 RMK AO2
                 SLP167 60007 70018 T00441011 10078 20039 51053 =
2018-10-21 06:53 METAR KSEG 211053Z AUTO 32006KT 10SM BKN036 BKN044 05/01 A2997 RMK AO2 SLP151
                 T00500006 =
2018-10-21 05:53 METAR KSEG 210953Z AUTO 31007KT 10SM SCT032 BKN065 OVC100 05/02 A2992 RMK AO2
                 RAE12 SLP133 P0000 T00500017 =
2018-10-21 04:53 METAR KSEG 210853Z AUTO 32012G20KT 10SM -RA OVC032 06/03 A2986 RMK AO2 PK WND
                 35028/0818 PRESRR SLP111 P0006 60007 T00560028 53040 =
2018-10-21 04:35 METAR KSEG 210835Z AUTO 32012G25KT 10SM -RA FEW017 OVC032 06/03 A2984 RMK AO2 PK
                 WND 35028/0818 PRESRR P0006 T00560028 =
2018-10-21 04:03 METAR KSEG 210803Z AUTO 33009KT 5SM RA BR SCT017 BKN027 OVC060 07/04 A2980 RMK
                 AO2 PRESRR P0002 T00670044 =
2018-10-21 03:53 METAR KSEG 210753Z AUTO 30009KT 10SM -RA SCT028 BKN048 OVC060 07/04 A2979 RMK
                 AO2 RAE20B39 SLP087 P0001 T00670044 =
2018-10-21 03:27 METAR KSEG 210727Z AUTO 30006KT 10SM SCT025 BKN055 OVC070 07/04 A2977 RMK AO2
                 RAE20 P0001 T00670044 =
2018-10-21 02:53 METAR KSEG 210653Z AUTO 31006KT 10SM -RA OVC029 07/04 A2976 RMK AO2 RAB44 SLP076
                 P0000 T00720044 =
2018-10-21 01:53 METAR KSEG 210553Z AUTO 30006KT 10SM OVC032 08/04 A2974 RMK AO2 SLP070 60010
                 T00780044 10094 20067 53008 =
2018-10-21 00:53 METAR KSEG 210453Z AUTO 30005KT 10SM OVC032 08/04 A2973 RMK AO2 SLP066 T00780044
                 401560067 =
2018-10-20 23:53 METAR KSEG 210353Z AUTO 30004KT 10SM CLR 07/04 A2971 RMK AO2 SLP063 T00670044 =
2018-10-20 22:53 METAR KSEG 210253Z AUTO 00000KT 10SM SCT042 07/06 A2971 RMK AO2 SLP062 60010
                 T00720061 51022 =
2018-10-20 21:53 METAR KSEG 210153Z AUTO VRB03KT 10SM SCT090 BKN120 08/06 A2970 RMK AO2 RAE18
                 SLP058 P0000 T00780061 =
2018-10-20 20:53 METAR KSEG 210053Z AUTO 28010G17KT 250V310 10SM -RA FEW034 OVC043 09/07 A2970
                 RMK AO2 RAB16 SLP060 P0010 T00890067 =
2018-10-20 19:53 METAR KSEG 202353Z AUTO 00000KT 10SM FEW050 SCT060 OVC080 09/07 A2965 RMK AO2
                 RAB21E46 SLP041 P0001 60001 T00890067 10156 20089 53009 =
2018-10-20 18:53 METAR KSEG 202253Z AUTO 00000KT 10SM FEW060 FEW080 OVC100 10/07 A2964 RMK AO2
                 WSHFT 2156 RAB03E15 SLP039 P0000 T01000072 =
2018-10-20 18:16 METAR KSEG 202216Z AUTO 33006KT 10SM FEW038 BKN050 OVC065 11/06 A2963 RMK AO2
                 WSHFT 2156 RAB03E15 P0000 T01060061 =
2018-10-20 17:53 METAR KSEG 202153Z AUTO VRB05KT 10SM SCT055 BKN075 OVC100 14/06 A2963 RMK AO2
                 SLP032 T01390056 =
2018-10-20 16:53 METAR KSEG 202053Z AUTO VRB03KT 10SM SCT047 BKN055 15/07 A2962 RMK AO2 SLP031
                 T01500067 56031 =
2018-10-20 15:53 METAR KSEG 201953Z AUTO VRB03KT 10SM SCT070 SCT085 16/07 A2965 RMK AO2 SLP041
                 T01560067 =
2018-10-20 14:53 METAR KSEG 201853Z AUTO VRB04KT 10SM FEW055 BKN085 14/07 A2968 RMK AO2 SLP051
                 T01440067 =
2018-10-20 13:53 METAR KSEG 201753Z AUTO VRB05KT 10SM BKN032 OVC080 14/08 A2972 RMK AO2 SLP063
                 T01440078 10144 20106 58021 =
2018-10-20 12:53 METAR KSEG 201653Z AUTO 10SM OVC075 13/08 A2975 RMK AO2 SLP075 T01330078 =

Support USWX by starting your Amazon purchase here.